createdAt,value
2023-07-03T00:00:52.201Z,20.49
2023-07-03T00:05:54.008Z,20.45
2023-07-03T00:11:02.654Z,20.35
2023-07-03T00:16:05.102Z,20.39
2023-07-03T00:21:06.864Z,20.28
2023-07-03T00:26:08.494Z,20.17
2023-07-03T00:31:10.172Z,20.20
2023-07-03T00:36:11.837Z,19.95
2023-07-03T00:41:13.542Z,20.07
2023-07-03T00:46:15.285Z,19.98
2023-07-03T00:51:17.321Z,19.87
2023-07-03T00:56:19.800Z,19.90
2023-07-03T01:01:39.732Z,19.96
2023-07-03T01:07:06.773Z,19.89
2023-07-03T01:12:08.931Z,19.88
2023-07-03T01:17:11.044Z,19.89
2023-07-03T01:22:32.449Z,19.89
2023-07-03T01:27:36.641Z,19.81
2023-07-03T01:32:40.502Z,19.87
2023-07-03T01:37:47.892Z,19.85
2023-07-03T01:42:49.560Z,19.81
2023-07-03T01:47:51.267Z,19.82
2023-07-03T01:53:03.508Z,19.79
2023-07-03T01:58:18.922Z,19.76
2023-07-03T02:03:26.007Z,19.72
2023-07-03T02:08:28.801Z,19.68
2023-07-03T02:13:30.441Z,19.58
2023-07-03T02:18:35.268Z,19.61
2023-07-03T02:23:37.163Z,19.48
2023-07-03T02:28:38.891Z,19.53
2023-07-03T02:33:40.955Z,19.37
2023-07-03T02:38:42.571Z,19.42
2023-07-03T02:43:44.303Z,19.44
2023-07-03T02:48:46.631Z,19.44
2023-07-03T02:53:48.692Z,19.40
2023-07-03T02:58:51.752Z,19.29
2023-07-03T03:03:59.788Z,19.37
2023-07-03T03:09:02.091Z,19.37
2023-07-03T03:14:06.989Z,19.38
2023-07-03T03:19:09.685Z,19.42
2023-07-03T03:24:11.385Z,19.41
2023-07-03T03:29:13.009Z,19.42
2023-07-03T03:34:16.576Z,19.41
2023-07-03T03:39:18.235Z,19.31
2023-07-03T03:44:20.223Z,19.40
2023-07-03T03:49:23.099Z,19.34
2023-07-03T03:54:27.515Z,19.24
2023-07-03T03:59:29.473Z,19.24
2023-07-03T04:04:33.408Z,19.34
2023-07-03T04:09:35.158Z,19.34
2023-07-03T04:14:39.126Z,19.33
2023-07-03T04:19:40.823Z,19.36
2023-07-03T04:24:42.434Z,19.27
2023-07-03T04:29:44.125Z,19.40
2023-07-03T04:34:45.751Z,19.59
2023-07-03T04:39:47.398Z,19.83
2023-07-03T04:44:50.094Z,19.54
2023-07-03T04:49:56.418Z,19.73
2023-07-03T04:54:58.170Z,19.90
2023-07-03T05:00:01.650Z,20.01
2023-07-03T05:05:03.401Z,20.09
2023-07-03T05:10:06.627Z,20.44
2023-07-03T05:15:09.622Z,20.57
2023-07-03T05:20:15.981Z,21.02
2023-07-03T05:25:17.882Z,21.11
2023-07-03T05:30:19.650Z,21.27
2023-07-03T05:35:21.382Z,21.24
2023-07-03T05:40:23.218Z,21.53
2023-07-03T05:45:25.175Z,21.40
2023-07-03T05:50:26.775Z,21.51
2023-07-03T05:55:28.381Z,21.29
2023-07-03T06:00:32.056Z,21.62
2023-07-03T06:05:33.779Z,21.64
2023-07-03T06:10:35.462Z,21.89
2023-07-03T06:15:37.164Z,21.69
2023-07-03T06:20:39.119Z,21.82
2023-07-03T06:25:41.465Z,22.01
2023-07-03T06:30:51.343Z,22.28
2023-07-03T06:35:53.391Z,22.36
2023-07-03T06:41:01.560Z,22.37
2023-07-03T06:46:03.187Z,22.49
2023-07-03T06:51:06.614Z,22.44
2023-07-03T06:56:09.139Z,22.35
2023-07-03T07:01:13.493Z,22.61
2023-07-03T07:06:22.541Z,22.84
2023-07-03T07:11:29.531Z,22.89
2023-07-03T07:16:35.960Z,22.87
2023-07-03T07:21:39.566Z,22.85
2023-07-03T07:26:41.338Z,23.05
2023-07-03T07:31:43.220Z,23.02
2023-07-03T07:36:45.802Z,22.77
2023-07-03T07:41:47.927Z,23.06
2023-07-03T07:46:49.591Z,22.88
2023-07-03T07:51:51.399Z,23.07
2023-07-03T07:56:52.997Z,23.02
2023-07-03T08:01:54.626Z,23.07
2023-07-03T08:06:56.281Z,23.31
2023-07-03T08:11:57.996Z,23.16
2023-07-03T08:16:59.754Z,23.07
2023-07-03T08:22:01.437Z,23.19
2023-07-03T08:27:03.126Z,23.38
2023-07-03T08:32:10.365Z,23.44
2023-07-03T08:37:12.091Z,23.08
2023-07-03T08:42:24.979Z,22.92
2023-07-03T08:47:29.299Z,23.12
2023-07-03T08:52:46.334Z,23.15
2023-07-03T08:57:47.994Z,23.19
2023-07-03T09:03:09.105Z,23.20
2023-07-03T09:08:21.466Z,22.99
2023-07-03T09:13:33.946Z,23.13
2023-07-03T09:18:38.886Z,23.36
2023-07-03T09:23:54.968Z,23.14
2023-07-03T09:28:59.445Z,23.37
2023-07-03T09:34:01.085Z,23.28
2023-07-03T09:39:08.389Z,23.16
2023-07-03T09:44:14.145Z,23.20
2023-07-03T09:49:24.077Z,23.09
2023-07-03T09:54:31.097Z,23.56
2023-07-03T09:59:33.012Z,23.26
2023-07-03T10:15:00.828Z,23.33
2023-07-03T10:20:05.950Z,23.16
2023-07-03T10:25:10.882Z,23.12
2023-07-03T10:30:16.548Z,23.24
2023-07-03T10:35:25.853Z,23.34
2023-07-03T10:41:00.721Z,23.19
2023-07-03T10:46:03.847Z,23.15
2023-07-03T10:51:14.938Z,23.23
2023-07-03T10:56:44.485Z,23.21
2023-07-03T11:02:13.634Z,23.16
2023-07-03T11:07:20.637Z,23.33
2023-07-03T11:12:40.454Z,23.55
2023-07-03T11:23:29.374Z,23.66
2023-07-03T11:28:37.072Z,23.60
2023-07-03T11:44:35.196Z,23.97
2023-07-03T11:49:40.531Z,24.08
2023-07-03T11:54:43.240Z,24.29
2023-07-03T11:59:44.922Z,23.69
2023-07-03T12:04:49.553Z,23.59
2023-07-03T12:09:51.931Z,23.90
2023-07-03T12:14:58.779Z,23.93
2023-07-03T12:20:28.919Z,23.99
2023-07-03T12:25:30.839Z,24.00
2023-07-03T12:30:32.517Z,23.94
2023-07-03T12:35:36.478Z,23.91
2023-07-03T12:40:45.972Z,24.00
2023-07-03T12:45:52.688Z,24.01
2023-07-03T12:50:57.595Z,23.73
2023-07-03T12:56:04.010Z,23.78
2023-07-03T13:01:07.481Z,24.22
2023-07-03T13:06:29.072Z,24.28
2023-07-03T13:11:45.082Z,24.36
2023-07-03T13:16:49.686Z,24.13
2023-07-03T13:21:52.062Z,24.16
2023-07-03T13:26:54.651Z,24.14
2023-07-03T13:32:20.102Z,24.40
2023-07-03T13:37:26.728Z,24.17
2023-07-03T13:42:28.348Z,24.12
2023-07-03T13:47:30.294Z,23.99
2023-07-03T13:52:32.031Z,24.09
2023-07-03T13:57:33.670Z,24.34
2023-07-03T14:02:47.122Z,24.17
2023-07-03T14:07:50.035Z,24.03
2023-07-03T14:12:51.835Z,24.18
2023-07-03T14:17:54.405Z,23.87
2023-07-03T14:22:56.668Z,23.64
2023-07-03T14:28:00.111Z,23.85
2023-07-03T14:33:01.796Z,23.76
2023-07-03T14:38:03.461Z,23.69
2023-07-03T14:43:06.581Z,23.74
2023-07-03T14:48:10.064Z,23.75
2023-07-03T14:53:11.703Z,23.66
2023-07-03T14:58:13.924Z,23.53
2023-07-03T15:03:15.784Z,23.71
2023-07-03T15:08:17.586Z,23.86
2023-07-03T15:13:19.609Z,23.79
2023-07-03T15:18:22.922Z,23.83
2023-07-03T15:23:24.531Z,23.89
2023-07-03T15:28:26.155Z,23.74
2023-07-03T15:33:28.433Z,23.75
2023-07-03T15:38:31.172Z,23.68
2023-07-03T15:43:33.887Z,23.44
2023-07-03T15:48:37.033Z,23.55
2023-07-03T15:53:39.187Z,23.48
2023-07-03T15:58:43.235Z,23.48
2023-07-03T16:03:45.681Z,23.52
2023-07-03T16:08:47.397Z,23.50
2023-07-03T16:13:49.754Z,23.50
2023-07-03T16:18:54.233Z,23.61
2023-07-03T16:23:57.343Z,23.55
2023-07-03T16:28:59.021Z,23.66
2023-07-03T16:34:01.937Z,23.53
2023-07-03T16:39:05.516Z,23.37
2023-07-03T16:44:07.256Z,23.37
2023-07-03T16:49:09.104Z,23.49
2023-07-03T16:54:10.765Z,23.48
2023-07-03T16:59:12.376Z,23.33
2023-07-03T17:04:13.975Z,23.31
2023-07-03T17:09:19.412Z,23.23
2023-07-03T17:14:21.081Z,23.16
2023-07-03T17:19:22.726Z,23.07
2023-07-03T17:24:24.387Z,23.08
2023-07-03T17:29:27.800Z,23.10
2023-07-03T17:34:29.444Z,23.03
2023-07-03T17:39:31.164Z,23.00
2023-07-03T17:44:32.795Z,22.98
2023-07-03T17:49:34.611Z,22.93
2023-07-03T17:54:37.267Z,22.95
2023-07-03T17:59:38.847Z,22.91
2023-07-03T18:04:40.476Z,22.86
2023-07-03T18:09:43.556Z,22.86
2023-07-03T18:14:45.418Z,22.83
2023-07-03T18:19:47.021Z,22.79
2023-07-03T18:24:48.638Z,22.77
2023-07-03T18:29:50.364Z,22.72
2023-07-03T18:34:52.118Z,22.69
2023-07-03T18:39:56.520Z,22.65
2023-07-03T18:44:58.305Z,22.57
2023-07-03T18:49:59.999Z,22.56
2023-07-03T18:55:01.898Z,22.28
2023-07-03T19:00:05.378Z,22.39
2023-07-03T19:05:07.557Z,22.38
2023-07-03T19:10:17.834Z,22.14
2023-07-03T19:15:20.534Z,22.28
2023-07-03T19:20:22.528Z,22.18
2023-07-03T19:25:24.896Z,22.21
2023-07-03T19:30:26.948Z,21.97
2023-07-03T19:35:28.561Z,21.66
2023-07-03T19:40:30.263Z,21.65
2023-07-03T19:45:33.627Z,21.66
2023-07-03T19:50:37.994Z,21.75
2023-07-03T19:55:39.774Z,21.74
2023-07-03T20:00:41.439Z,21.31
2023-07-03T20:05:46.481Z,21.14
2023-07-03T20:10:58.597Z,21.47
2023-07-03T20:16:04.163Z,21.36
2023-07-03T20:21:07.165Z,21.26
2023-07-03T20:26:08.789Z,21.25
2023-07-03T20:31:15.418Z,21.19
2023-07-03T20:36:17.809Z,20.98
2023-07-03T20:41:20.273Z,20.89
2023-07-03T20:46:25.347Z,20.73
2023-07-03T20:51:32.792Z,20.37
2023-07-03T20:56:39.670Z,20.85
2023-07-03T21:01:41.345Z,20.73
2023-07-03T21:06:45.443Z,20.23
2023-07-03T21:11:47.651Z,20.64
2023-07-03T21:16:49.469Z,20.41
2023-07-03T21:21:51.174Z,20.42
2023-07-03T21:26:52.873Z,20.18
2023-07-03T21:31:54.558Z,20.02
2023-07-03T21:36:56.297Z,20.07
2023-07-03T21:41:58.111Z,20.00
2023-07-03T21:47:01.595Z,19.95
2023-07-03T21:52:03.366Z,19.79
2023-07-03T21:57:05.471Z,19.72
2023-07-03T22:02:07.194Z,19.64
2023-07-03T22:07:08.901Z,19.65
2023-07-03T22:12:10.700Z,19.54
2023-07-03T22:17:12.283Z,19.47
2023-07-03T22:22:14.411Z,19.55
2023-07-03T22:27:16.292Z,19.52
2023-07-03T22:32:17.903Z,19.38
2023-07-03T22:37:20.229Z,19.32
2023-07-03T22:42:21.945Z,19.29
2023-07-03T22:47:23.712Z,19.15
2023-07-03T22:52:25.484Z,19.17
2023-07-03T22:57:27.940Z,19.09
2023-07-03T23:02:32.010Z,19.05
2023-07-03T23:07:34.360Z,18.78
2023-07-03T23:12:36.367Z,18.95
2023-07-03T23:17:38.037Z,18.99
2023-07-03T23:22:40.127Z,18.84
2023-07-03T23:27:43.090Z,18.85
2023-07-03T23:32:44.779Z,18.81
2023-07-03T23:37:46.516Z,18.47
2023-07-03T23:42:48.208Z,18.67
2023-07-03T23:47:52.832Z,18.71
2023-07-03T23:52:55.136Z,18.53
2023-07-03T23:57:56.750Z,18.68
